createdAt,value
2018-03-18T00:02:37.024Z,-1.60
2018-03-18T00:07:10.550Z,-1.60
2018-03-18T00:11:43.812Z,-1.60
2018-03-18T00:16:18.766Z,-1.60
2018-03-18T00:20:52.063Z,-1.60
2018-03-18T00:25:26.052Z,-1.60
2018-03-18T00:29:59.505Z,-1.70
2018-03-18T00:34:33.539Z,-1.70
2018-03-18T00:39:07.437Z,-1.70
2018-03-18T00:43:41.498Z,-1.60
2018-03-18T00:48:15.320Z,-1.60
2018-03-18T00:52:48.755Z,-1.60
2018-03-18T00:57:22.119Z,-1.70
2018-03-18T01:01:56.162Z,-1.60
2018-03-18T01:06:29.487Z,-1.70
2018-03-18T01:11:02.899Z,-1.70
2018-03-18T01:15:36.124Z,-1.70
2018-03-18T01:20:09.395Z,-1.50
2018-03-18T01:24:42.662Z,-1.60
2018-03-18T01:29:15.929Z,-1.60
2018-03-18T01:33:49.312Z,-1.70
2018-03-18T01:38:23.371Z,-1.70
2018-03-18T01:42:57.338Z,-1.70
2018-03-18T01:47:30.926Z,-1.70
2018-03-18T01:52:04.194Z,-1.60
2018-03-18T01:56:37.466Z,-1.60
2018-03-18T02:01:10.773Z,-1.50
2018-03-18T02:05:44.044Z,-1.60
2018-03-18T02:10:17.423Z,-1.50
2018-03-18T02:14:50.777Z,-1.60
2018-03-18T02:19:24.612Z,-1.60
2018-03-18T02:23:58.621Z,-1.70
2018-03-18T02:28:31.916Z,-1.80
2018-03-18T02:33:05.503Z,-1.70
2018-03-18T02:37:39.556Z,-1.90
2018-03-18T02:42:12.837Z,-1.90
2018-03-18T02:46:46.872Z,-1.80
2018-03-18T02:51:21.025Z,-2.00
2018-03-18T02:55:54.268Z,-2.00
2018-03-18T03:00:27.538Z,-2.00
2018-03-18T03:05:00.854Z,-1.90
2018-03-18T03:09:34.124Z,-1.90
2018-03-18T03:14:08.173Z,-1.90
2018-03-18T03:18:41.401Z,-1.90
2018-03-18T03:23:14.771Z,-1.90
2018-03-18T03:27:48.830Z,-1.90
2018-03-18T03:32:22.092Z,-2.00
2018-03-18T03:36:56.153Z,-2.00
2018-03-18T03:41:29.442Z,-2.00
2018-03-18T03:46:03.447Z,-2.10
2018-03-18T03:50:38.278Z,-2.10
2018-03-18T03:55:11.679Z,-2.10
2018-03-18T03:59:45.033Z,-2.20
2018-03-18T04:04:19.068Z,-2.00
2018-03-18T04:08:53.084Z,-2.10
2018-03-18T04:13:27.215Z,-2.10
2018-03-18T04:18:01.254Z,-2.00
2018-03-18T04:22:34.650Z,-2.10
2018-03-18T04:27:08.063Z,-1.90
2018-03-18T04:31:42.193Z,-1.90
2018-03-18T04:36:15.600Z,-2.00
2018-03-18T04:40:49.754Z,-2.20
2018-03-18T04:45:23.552Z,-2.20
2018-03-18T04:49:58.397Z,-2.20
2018-03-18T04:54:32.549Z,-2.20
2018-03-18T04:59:05.835Z,-2.30
2018-03-18T05:03:39.986Z,-2.20
2018-03-18T05:08:13.213Z,-2.30
2018-03-18T05:12:46.613Z,-2.20
2018-03-18T05:17:20.093Z,-2.00
2018-03-18T05:21:54.130Z,-2.00
2018-03-18T05:26:27.652Z,-2.00
2018-03-18T05:31:00.878Z,-2.00
2018-03-18T05:35:34.173Z,-2.00
2018-03-18T05:40:07.483Z,-2.00
2018-03-18T05:44:40.808Z,-2.10
2018-03-18T05:49:14.076Z,-2.10
2018-03-18T05:53:48.238Z,-2.00
2018-03-18T05:58:21.465Z,-2.10
2018-03-18T06:02:55.028Z,-2.00
2018-03-18T06:07:29.158Z,-2.10
2018-03-18T06:12:03.181Z,-2.10
2018-03-18T06:16:37.225Z,-2.00
2018-03-18T06:21:11.214Z,-2.00
2018-03-18T06:25:45.295Z,-2.00
2018-03-18T06:30:18.595Z,-2.00
2018-03-18T06:34:52.011Z,-2.10
2018-03-18T06:39:25.391Z,-2.10
2018-03-18T06:44:00.135Z,-2.10
2018-03-18T06:48:34.163Z,-2.20
2018-03-18T06:53:08.218Z,-2.00
2018-03-18T06:57:41.498Z,-2.10
2018-03-18T07:02:15.829Z,-1.90
2018-03-18T07:06:49.990Z,-1.90
2018-03-18T07:11:23.291Z,-1.90
2018-03-18T07:15:56.583Z,-1.90
2018-03-18T07:20:30.638Z,-1.90
2018-03-18T07:25:04.013Z,-2.00
2018-03-18T07:29:37.325Z,-2.10
2018-03-18T07:34:11.552Z,-2.10
2018-03-18T07:38:45.600Z,-2.10
2018-03-18T07:43:18.890Z,-2.10
2018-03-18T07:47:53.004Z,-2.10
2018-03-18T07:52:26.355Z,-2.20
2018-03-18T07:56:59.627Z,-2.00
2018-03-18T08:01:33.926Z,-1.90
2018-03-18T08:06:08.461Z,-2.10
2018-03-18T08:10:41.729Z,-2.20
2018-03-18T08:15:15.053Z,-2.00
2018-03-18T08:19:50.117Z,-1.90
2018-03-18T08:24:23.394Z,-1.90
2018-03-18T08:28:57.022Z,-2.00
2018-03-18T08:33:30.977Z,-2.00
2018-03-18T08:38:04.277Z,-1.90
2018-03-18T08:42:37.743Z,-1.90
2018-03-18T08:47:11.260Z,-1.80
2018-03-18T08:51:44.571Z,-1.80
2018-03-18T08:56:18.609Z,-1.90
2018-03-18T09:00:51.881Z,-2.00
2018-03-18T09:05:25.270Z,-1.90
2018-03-18T09:09:58.650Z,-1.90
2018-03-18T09:14:32.085Z,-1.90
2018-03-18T09:19:06.211Z,-1.80
2018-03-18T09:23:40.527Z,-1.70
2018-03-18T09:28:13.802Z,-1.80
2018-03-18T09:32:48.035Z,-1.90
2018-03-18T09:37:21.469Z,-1.90
2018-03-18T09:41:54.793Z,-1.90
2018-03-18T09:46:28.576Z,-1.70
2018-03-18T09:51:01.930Z,-1.80
2018-03-18T09:55:35.205Z,-1.90
2018-03-18T10:00:09.018Z,-1.70
2018-03-18T10:04:43.066Z,-1.60
2018-03-18T10:09:16.760Z,-1.70
2018-03-18T10:13:50.810Z,-2.00
2018-03-18T10:18:24.074Z,-2.00
2018-03-18T10:22:57.426Z,-1.80
2018-03-18T10:27:30.691Z,-1.90
2018-03-18T10:32:03.978Z,-1.70
2018-03-18T10:36:37.519Z,-1.90
2018-03-18T10:41:11.565Z,-1.90
2018-03-18T10:45:45.713Z,-1.70
2018-03-18T10:50:19.003Z,-1.80
2018-03-18T10:54:52.310Z,-1.80
2018-03-18T10:59:26.431Z,-2.00
2018-03-18T11:04:17.297Z,-2.00
2018-03-18T11:08:50.589Z,-2.10
2018-03-18T11:13:23.867Z,-1.80
2018-03-18T11:17:58.243Z,-1.80
2018-03-18T11:22:31.720Z,-1.90
2018-03-18T11:27:05.952Z,-1.90
2018-03-18T11:31:40.178Z,-1.80
2018-03-18T11:36:14.217Z,-1.60
2018-03-18T11:40:48.253Z,-1.50
2018-03-18T11:45:21.579Z,-1.60
2018-03-18T11:49:54.872Z,-1.70
2018-03-18T11:54:28.367Z,-1.70
2018-03-18T11:59:02.419Z,-1.60
2018-03-18T12:03:35.805Z,-1.70
2018-03-18T12:13:07.860Z,-1.60
2018-03-18T12:17:41.153Z,-1.50
2018-03-18T12:22:14.815Z,-1.60
2018-03-18T12:26:48.094Z,-1.50
2018-03-18T12:31:22.398Z,-1.40
2018-03-18T12:35:56.621Z,-1.30
2018-03-18T12:40:33.476Z,-1.30
2018-03-18T12:45:08.174Z,-1.30
2018-03-18T12:49:41.458Z,-1.30
2018-03-18T12:54:15.962Z,-1.10
2018-03-18T12:58:49.619Z,-1.10
2018-03-18T13:03:23.156Z,-1.20
2018-03-18T13:07:57.390Z,-1.20
2018-03-18T13:12:30.720Z,-1.20
2018-03-18T13:17:04.285Z,-1.20
2018-03-18T13:21:37.717Z,-1.10
2018-03-18T13:26:11.031Z,-1.10
2018-03-18T13:30:44.414Z,-1.10
2018-03-18T13:35:17.750Z,-1.20
2018-03-18T13:39:51.873Z,-1.30
2018-03-18T13:44:25.778Z,-1.20
2018-03-18T13:48:59.861Z,-1.20
2018-03-18T13:53:33.315Z,-1.30
2018-03-18T13:58:08.202Z,-1.10
2018-03-18T14:02:41.578Z,-1.20
2018-03-18T14:07:15.601Z,-1.30
2018-03-18T14:11:49.680Z,-1.10
2018-03-18T14:16:23.138Z,-1.20
2018-03-18T14:20:56.474Z,-1.10
2018-03-18T14:25:29.860Z,-0.90
2018-03-18T14:30:04.090Z,-1.10
2018-03-18T14:34:38.826Z,-0.90
2018-03-18T14:39:12.864Z,-1.10
2018-03-18T14:43:46.102Z,-1.20
2018-03-18T14:48:19.438Z,-1.10
2018-03-18T14:52:53.500Z,-1.00
2018-03-18T14:57:27.533Z,-0.90
2018-03-18T15:02:01.720Z,-0.80
2018-03-18T15:06:34.982Z,-0.80
2018-03-18T15:11:08.631Z,-0.70
2018-03-18T15:15:41.993Z,-0.80
2018-03-18T15:20:16.161Z,-0.70
2018-03-18T15:24:49.765Z,-0.80
2018-03-18T15:29:23.008Z,-0.90
2018-03-18T15:33:56.280Z,-1.00
2018-03-18T15:38:29.905Z,-0.80
2018-03-18T15:43:03.202Z,-0.90
2018-03-18T15:47:37.204Z,-0.90
2018-03-18T15:52:11.333Z,-0.80
2018-03-18T15:56:45.464Z,-0.80
2018-03-18T16:01:19.816Z,-0.70
2018-03-18T16:05:53.547Z,-0.80
2018-03-18T16:10:26.828Z,-0.70
2018-03-18T16:15:00.899Z,-0.60
2018-03-18T16:19:34.875Z,-0.70
2018-03-18T16:24:08.905Z,-0.60
2018-03-18T16:28:42.947Z,-0.60
2018-03-18T16:33:17.290Z,-0.70
2018-03-18T16:37:50.566Z,-0.60
2018-03-18T16:42:24.568Z,-0.60
2018-03-18T16:46:57.959Z,-0.60
2018-03-18T16:51:32.134Z,-0.60
2018-03-18T16:56:06.195Z,-0.60
2018-03-18T17:00:39.473Z,-0.60
2018-03-18T17:05:13.484Z,-0.60
2018-03-18T17:09:47.623Z,-0.60
2018-03-18T17:14:21.752Z,-0.50
2018-03-18T17:18:55.897Z,-0.60
2018-03-18T17:23:29.807Z,-0.60
2018-03-18T17:28:03.081Z,-0.70
2018-03-18T17:32:36.422Z,-0.60
2018-03-18T17:37:10.573Z,-0.60
2018-03-18T17:41:44.102Z,-0.60
2018-03-18T17:46:29.697Z,-0.50
2018-03-18T17:51:15.244Z,-0.50
2018-03-18T17:55:49.488Z,-0.50
2018-03-18T18:00:23.730Z,-0.50
2018-03-18T18:04:57.641Z,-0.60
2018-03-18T18:09:31.691Z,-0.40
2018-03-18T18:14:05.002Z,-0.50
2018-03-18T18:18:38.290Z,-0.40
2018-03-18T18:23:12.415Z,-0.40
2018-03-18T18:27:46.779Z,-0.40
2018-03-18T18:32:20.263Z,-0.40
2018-03-18T18:36:54.386Z,-0.40
2018-03-18T18:41:28.411Z,-0.50
2018-03-18T18:46:03.160Z,-0.40
2018-03-18T18:50:37.271Z,-0.40
2018-03-18T18:55:11.346Z,-0.40
2018-03-18T18:59:44.727Z,-0.50
2018-03-18T19:04:18.137Z,-0.50
2018-03-18T19:08:52.149Z,-0.30
2018-03-18T19:13:26.223Z,-0.40
2018-03-18T19:17:59.600Z,-0.50
2018-03-18T19:22:34.342Z,-0.40
2018-03-18T19:27:08.573Z,-0.50
2018-03-18T19:31:41.883Z,-0.50
2018-03-18T19:36:16.283Z,-0.40
2018-03-18T19:40:50.569Z,-0.40
2018-03-18T19:45:24.047Z,-0.40
2018-03-18T19:49:57.312Z,-0.50
2018-03-18T19:54:30.804Z,-0.40
2018-03-18T19:59:05.040Z,-0.50
2018-03-18T20:03:38.424Z,-0.50
2018-03-18T20:08:12.660Z,-0.40
2018-03-18T20:12:46.655Z,-0.50
2018-03-18T20:17:21.525Z,-0.50
2018-03-18T20:21:55.904Z,-0.40
2018-03-18T20:26:29.182Z,-0.50
2018-03-18T20:31:02.500Z,-0.40
2018-03-18T20:35:35.770Z,-0.40
2018-03-18T20:40:09.432Z,-0.50
2018-03-18T20:44:42.814Z,-0.40
2018-03-18T20:49:17.359Z,-0.50
2018-03-18T20:53:51.462Z,-0.50
2018-03-18T20:58:25.585Z,-0.50
2018-03-18T21:02:59.022Z,-0.50
2018-03-18T21:07:33.175Z,-0.50
2018-03-18T21:12:06.445Z,-0.60
2018-03-18T21:16:40.500Z,-0.50
2018-03-18T21:21:13.796Z,-0.60
2018-03-18T21:25:47.820Z,-0.60
2018-03-18T21:30:21.981Z,-0.60
2018-03-18T21:34:55.756Z,-0.70
2018-03-18T21:39:29.317Z,-0.60
2018-03-18T21:44:02.610Z,-0.60
2018-03-18T21:48:35.860Z,-0.70
2018-03-18T21:53:09.249Z,-0.60
2018-03-18T21:57:42.720Z,-0.60
2018-03-18T22:02:16.942Z,-0.70
2018-03-18T22:06:51.000Z,-0.70
2018-03-18T22:11:24.250Z,-0.80
2018-03-18T22:15:57.993Z,-0.70
2018-03-18T22:20:32.020Z,-0.70
2018-03-18T22:25:05.998Z,-0.70
2018-03-18T22:29:39.268Z,-0.70
2018-03-18T22:34:12.570Z,-0.80
2018-03-18T22:38:46.641Z,-0.80
2018-03-18T22:43:19.924Z,-0.90
2018-03-18T22:47:53.372Z,-0.90
2018-03-18T22:52:27.441Z,-0.80
2018-03-18T22:57:02.303Z,-0.80
2018-03-18T23:01:36.249Z,-0.80
2018-03-18T23:06:10.329Z,-0.70
2018-03-18T23:10:43.602Z,-0.70
2018-03-18T23:15:17.482Z,-0.80
2018-03-18T23:19:51.536Z,-0.90
2018-03-18T23:24:24.834Z,-0.90
2018-03-18T23:28:58.093Z,-1.00
2018-03-18T23:33:31.458Z,-1.00
2018-03-18T23:38:04.949Z,-1.00
2018-03-18T23:42:38.336Z,-0.90
2018-03-18T23:47:11.546Z,-1.00
2018-03-18T23:51:44.980Z,-1.00
2018-03-18T23:56:19.005Z,-1.20
